Time;durP1;ratioP1;P1;durP2;ratioP2;P2;SDS_P1;SDS_P2;PMS_P1;PMS_P2;Temp;Humidity;BMP_temperature;BMP_pressure;BME280_temperature;BME280_humidity;BME280_pressure;Samples;Min_cycle;Max_cycle;Signal;HPM_P1;HPM_P2
2021/12/10 00:00:23;;;;;;;43.30;23.02;;;5.10;99.90;;;;;;5034603;28;20048;-70
2021/12/10 00:02:51;;;;;;;43.55;22.70;;;5.20;99.90;;;;;;5042865;28;20049;-70
2021/12/10 00:05:23;;;;;;;41.15;23.30;;;5.10;99.90;;;;;;5050054;28;20057;-70
2021/12/10 00:07:50;;;;;;;40.78;23.30;;;5.10;99.90;;;;;;5040198;28;20041;-70
2021/12/10 00:10:21;;;;;;;40.60;23.45;;;5.20;99.90;;;;;;5031661;28;20055;-70
2021/12/10 00:12:50;;;;;;;41.28;23.08;;;5.10;99.90;;;;;;5043962;28;20045;-69
2021/12/10 00:15:23;;;;;;;41.15;24.10;;;5.10;99.90;;;;;;5039326;28;20045;-69
2021/12/10 00:17:51;;;;;;;36.42;21.45;;;5.10;99.90;;;;;;5050477;28;20050;-69
2021/12/10 00:20:17;;;;;;;38.75;21.38;;;5.10;99.90;;;;;;5045791;28;20083;-69
2021/12/10 00:22:53;;;;;;;38.38;21.83;;;5.10;99.90;;;;;;5035080;28;20088;-69
2021/12/10 00:25:22;;;;;;;34.50;20.17;;;6.40;99.90;;;;;;5030650;28;20059;-68
2021/12/10 00:27:50;;;;;;;38.47;22.95;;;5.10;99.90;;;;;;5034359;28;20482;-68
2021/12/10 00:30:25;;;;;;;39.33;21.73;;;5.10;99.90;;;;;;5048262;28;20041;-69
2021/12/10 00:33:02;;;;;;;35.83;19.55;;;5.10;99.90;;;;;;5051023;28;20041;-69
2021/12/10 00:35:30;;;;;;;33.83;20.23;;;5.20;99.90;;;;;;5047708;28;20033;-69
2021/12/10 00:37:56;;;;;;;37.78;20.67;;;5.40;99.90;;;;;;5040577;28;20095;-69
2021/12/10 00:40:24;;;;;;;34.92;19.15;;;5.20;99.90;;;;;;5043302;28;20037;-69
2021/12/10 00:42:49;;;;;;;33.72;18.50;;;5.20;99.90;;;;;;5045497;28;20432;-69
2021/12/10 00:45:18;;;;;;;35.72;19.38;;;5.20;99.90;;;;;;5050122;28;20045;-69
2021/12/10 00:47:45;;;;;;;33.15;19.67;;;5.10;99.90;;;;;;5049864;28;20055;-69
2021/12/10 00:50:16;;;;;;;31.08;18.45;;;5.10;99.90;;;;;;5049017;28;20044;-69
2021/12/10 00:52:42;;;;;;;32.38;18.95;;;5.20;99.90;;;;;;5043038;28;20116;-69
2021/12/10 00:55:09;;;;;;;36.20;20.30;;;5.20;99.90;;;;;;5048691;28;20045;-69
2021/12/10 00:57:36;;;;;;;34.25;19.02;;;5.20;99.90;;;;;;5048584;28;20057;-69
2021/12/10 01:00:24;;;;;;;31.92;18.30;;;5.20;99.90;;;;;;5049385;28;20131;-69
2021/12/10 01:02:49;;;;;;;36.47;18.98;;;5.20;99.90;;;;;;5040148;28;20041;-69
2021/12/10 01:05:16;;;;;;;31.42;18.75;;;5.30;99.90;;;;;;5035433;28;20512;-69
2021/12/10 01:07:43;;;;;;;34.97;18.77;;;5.20;99.90;;;;;;5030688;28;20048;-69
2021/12/10 01:10:15;;;;;;;37.38;18.73;;;5.20;99.90;;;;;;5048255;28;20040;-69
2021/12/10 01:12:46;;;;;;;34.00;18.90;;;5.20;99.90;;;;;;5040473;28;20123;-69
2021/12/10 01:16:08;;;;;;;36.10;18.38;;;5.20;99.90;;;;;;5030053;28;20045;-69
2021/12/10 01:24:36;;;;;;;32.92;18.65;;;5.20;99.90;;;;;;5049360;28;20139;-70
2021/12/10 01:27:09;;;;;;;33.83;17.85;;;5.30;99.90;;;;;;5032431;28;20387;-70
2021/12/10 01:29:40;;;;;;;;;;;5.30;99.90;;;;;;5049350;28;20064;-69
2021/12/10 01:32:10;;;;;;;33.35;17.05;;;5.30;99.90;;;;;;5030225;28;19917;-70
2021/12/10 01:34:36;;;;;;;29.15;17.05;;;5.30;99.90;;;;;;5040365;28;20095;-70
2021/12/10 01:37:03;;;;;;;31.25;17.25;;;5.30;99.90;;;;;;5047352;28;20044;-70
2021/12/10 01:39:33;;;;;;;30.23;17.33;;;5.30;99.90;;;;;;5049897;28;20041;-70
2021/12/10 01:42:14;;;;;;;34.15;16.63;;;5.30;99.90;;;;;;5038024;28;20553;-69
2021/12/10 01:44:43;;;;;;;27.15;15.68;;;5.30;99.90;;;;;;5039782;28;20043;-70
2021/12/10 01:47:15;;;;;;;27.08;16.67;;;5.40;99.90;;;;;;5047460;28;20049;-70
2021/12/10 01:49:42;;;;;;;27.40;15.80;;;5.40;99.90;;;;;;5047299;28;20056;-70
2021/12/10 01:52:11;;;;;;;28.58;16.77;;;5.40;99.90;;;;;;5037963;28;20050;-70
2021/12/10 01:54:41;;;;;;;33.63;16.33;;;5.30;99.90;;;;;;5040427;28;20049;-70
2021/12/10 01:57:10;;;;;;;26.73;15.90;;;5.30;99.90;;;;;;5047919;28;20094;-69
2021/12/10 01:59:37;;;;;;;25.15;15.98;;;5.30;99.90;;;;;;5028602;28;20474;-69
2021/12/10 02:02:10;;;;;;;31.65;14.65;;;5.30;99.90;;;;;;5033241;28;20064;-69
2021/12/10 02:04:38;;;;;;;22.80;13.38;;;5.30;99.90;;;;;;5048378;28;20500;-70
2021/12/10 02:07:07;;;;;;;25.02;14.65;;;5.30;99.90;;;;;;5045866;28;20441;-69
2021/12/10 02:09:33;;;;;;;27.65;15.70;;;5.30;99.90;;;;;;5047210;28;20509;-69
2021/12/10 02:11:59;;;;;;;30.25;16.20;;;5.30;99.90;;;;;;5047389;28;20045;-69
2021/12/10 02:14:25;;;;;;;25.52;15.43;;;5.30;99.90;;;;;;5048628;28;20040;-70
2021/12/10 02:16:53;;;;;;;29.15;14.82;;;5.30;99.90;;;;;;5049523;28;20519;-69
2021/12/10 02:19:19;;;;;;;27.33;14.30;;;5.30;99.90;;;;;;5050421;28;20132;-69
2021/12/10 02:21:46;;;;;;;27.40;14.07;;;5.30;99.90;;;;;;5039642;28;20046;-69
2021/12/10 02:24:11;;;;;;;24.65;14.35;;;5.30;99.90;;;;;;5037776;28;20059;-69
2021/12/10 02:26:45;;;;;;;26.52;14.70;;;5.30;99.90;;;;;;5034244;28;20045;-69
2021/12/10 02:29:11;;;;;;;29.45;15.88;;;5.30;99.90;;;;;;5045287;28;20378;-69
2021/12/10 02:31:37;;;;;;;28.23;14.70;;;5.30;99.90;;;;;;5042003;28;20041;-69
2021/12/10 02:34:04;;;;;;;22.88;14.38;;;5.30;99.90;;;;;;5010936;28;20497;-69
2021/12/10 02:36:30;;;;;;;25.13;13.38;;;5.30;99.90;;;;;;5026015;28;20042;-69
2021/12/10 02:38:56;;;;;;;27.58;13.88;;;5.30;99.90;;;;;;5030122;28;20044;-69
2021/12/10 02:41:26;;;;;;;24.63;13.43;;;5.20;99.90;;;;;;5031441;28;20120;-69
2021/12/10 02:43:53;;;;;;;28.33;14.05;;;5.20;99.90;;;;;;5030373;28;20052;-69
2021/12/10 02:46:19;;;;;;;25.30;13.60;;;5.10;99.90;;;;;;5029228;28;20041;-69
2021/12/10 02:48:45;;;;;;;29.65;14.13;;;5.50;99.90;;;;;;5039758;28;20436;-69
2021/12/10 02:51:11;;;;;;;28.42;15.13;;;5.20;99.90;;;;;;5046303;28;20041;-69
2021/12/10 02:53:42;;;;;;;26.98;14.60;;;5.20;99.90;;;;;;5046767;28;20051;-69
2021/12/10 02:56:09;;;;;;;25.27;14.40;;;5.20;99.90;;;;;;5047733;28;20049;-68
2021/12/10 02:58:35;;;;;;;25.63;13.55;;;5.20;99.90;;;;;;5041527;28;20033;-69
2021/12/10 03:01:04;;;;;;;27.23;13.48;;;5.20;99.90;;;;;;5037481;28;20132;-69
2021/12/10 03:03:31;;;;;;;20.40;12.93;;;5.20;99.90;;;;;;5049542;28;20045;-69
2021/12/10 03:05:57;;;;;;;26.60;13.52;;;5.20;99.90;;;;;;5052525;28;20057;-69
2021/12/10 03:08:24;;;;;;;21.13;13.40;;;5.20;99.90;;;;;;5046131;28;20037;-69
2021/12/10 03:10:49;;;;;;;25.35;13.05;;;5.20;99.90;;;;;;5037951;28;20460;-69
2021/12/10 03:13:16;;;;;;;26.30;14.05;;;5.10;99.90;;;;;;5051954;28;20073;-69
2021/12/10 03:15:43;;;;;;;26.33;14.38;;;5.20;99.90;;;;;;5052175;28;20044;-69
2021/12/10 03:18:13;;;;;;;26.08;13.35;;;5.20;99.90;;;;;;5047145;28;20094;-70
2021/12/10 03:20:40;;;;;;;28.60;13.75;;;5.10;99.90;;;;;;5033443;28;20046;-69
2021/12/10 03:23:06;;;;;;;25.73;14.07;;;5.10;99.90;;;;;;5031000;28;20160;-69
2021/12/10 03:25:32;;;;;;;26.40;14.05;;;4.20;99.90;;;;;;5030941;28;20091;-69
2021/12/10 03:27:58;;;;;;;24.77;13.77;;;5.10;99.90;;;;;;5045925;28;20057;-68
2021/12/10 03:30:30;;;;;;;23.55;13.20;;;5.10;99.90;;;;;;5049753;28;20048;-69
2021/12/10 03:32:56;;;;;;;27.25;12.88;;;5.10;99.90;;;;;;5051398;28;20041;-68
2021/12/10 03:35:29;;;;;;;26.80;13.85;;;5.00;99.90;;;;;;5051436;28;20489;-69
2021/12/10 03:37:57;;;;;;;22.73;12.93;;;5.00;99.90;;;;;;5048615;28;20144;-69
2021/12/10 03:40:22;;;;;;;24.10;12.90;;;5.00;99.90;;;;;;5032880;28;20041;-69
2021/12/10 03:42:53;;;;;;;24.42;13.30;;;5.00;99.90;;;;;;5035752;28;20120;-68
2021/12/10 03:45:19;;;;;;;24.02;13.13;;;5.00;99.90;;;;;;5039926;28;20049;-69
2021/12/10 03:47:45;;;;;;;24.02;13.05;;;5.00;99.90;;;;;;5020473;28;20124;-68
2021/12/10 03:50:19;;;;;;;25.88;12.85;;;5.00;99.90;;;;;;5049013;28;20048;-68
2021/12/10 03:52:45;;;;;;;24.15;13.50;;;5.00;99.90;;;;;;5049757;28;20051;-68
2021/12/10 03:55:10;;;;;;;24.10;12.55;;;4.90;99.90;;;;;;5051096;28;20049;-69
2021/12/10 03:57:36;;;;;;;23.75;13.07;;;5.00;99.90;;;;;;5050367;28;20081;-69
2021/12/10 04:00:04;;;;;;;27.17;13.05;;;5.00;99.90;;;;;;5033509;28;20401;-69
2021/12/10 04:02:30;;;;;;;21.98;12.80;;;5.00;99.90;;;;;;5029507;28;20041;-69
2021/12/10 04:04:55;;;;;;;27.40;13.80;;;4.90;99.90;;;;;;5030956;28;20052;-69
2021/12/10 04:07:25;;;;;;;26.85;13.20;;;5.00;99.90;;;;;;5029629;28;20056;-69
2021/12/10 04:09:52;;;;;;;23.13;13.40;;;5.00;99.90;;;;;;5029638;28;20048;-70
2021/12/10 04:12:19;;;;;;;24.88;12.48;;;5.00;99.90;;;;;;5047846;28;20049;-70
2021/12/10 04:14:47;;;;;;;25.88;13.57;;;4.90;99.90;;;;;;5048467;28;20051;-70
2021/12/10 04:17:14;;;;;;;28.20;13.70;;;5.00;99.90;;;;;;5049407;28;20053;-69
2021/12/10 04:19:41;;;;;;;24.23;13.40;;;5.00;99.90;;;;;;5048781;28;20051;-69
2021/12/10 04:22:08;;;;;;;23.88;13.52;;;5.00;99.90;;;;;;5048935;28;20086;-69
2021/12/10 04:24:37;;;;;;;25.25;14.73;;;5.00;99.90;;;;;;5047993;28;20424;-69
2021/12/10 04:27:05;;;;;;;23.50;14.98;;;4.90;99.90;;;;;;5045936;28;20390;-69
2021/12/10 04:29:31;;;;;;;26.83;15.48;;;4.90;99.90;;;;;;5033176;28;20057;-69
2021/12/10 04:31:59;;;;;;;24.70;15.00;;;4.90;99.90;;;;;;5049023;28;20037;-69
2021/12/10 04:34:26;;;;;;;28.02;15.93;;;5.80;99.90;;;;;;5049025;28;20358;-69
2021/12/10 04:36:55;;;;;;;25.33;16.35;;;4.90;99.90;;;;;;5049124;28;20048;-70
2021/12/10 04:39:20;;;;;;;26.25;16.10;;;4.90;99.90;;;;;;5035125;28;20086;-70
2021/12/10 04:41:46;;;;;;;26.08;17.58;;;4.90;99.90;;;;;;5032497;28;20046;-68
2021/12/10 04:44:12;;;;;;;30.02;17.92;;;4.90;99.90;;;;;;5037933;28;20044;-68
2021/12/10 04:46:39;;;;;;;32.35;18.15;;;4.90;99.90;;;;;;5031788;28;20381;-68
2021/12/10 04:49:10;;;;;;;30.77;18.45;;;4.90;99.90;;;;;;5033736;28;20041;-68
2021/12/10 04:51:39;;;;;;;31.02;18.50;;;4.70;99.90;;;;;;5030221;28;20057;-68
2021/12/10 04:54:06;;;;;;;30.23;18.13;;;4.70;99.90;;;;;;5051284;28;20041;-69
2021/12/10 04:56:33;;;;;;;30.15;18.38;;;4.70;99.90;;;;;;5047211;28;20055;-69
2021/12/10 04:59:00;;;;;;;30.10;19.48;;;4.60;99.90;;;;;;5038547;28;20136;-69
2021/12/10 05:01:28;;;;;;;27.75;19.58;;;4.40;99.90;;;;;;5038132;28;20446;-69
2021/12/10 05:03:54;;;;;;;27.38;18.50;;;4.30;99.90;;;;;;5037793;28;20370;-69
2021/12/10 05:06:19;;;;;;;29.60;19.30;;;4.30;99.90;;;;;;5033251;28;20051;-69
2021/12/10 05:08:46;;;;;;;27.23;17.85;;;4.30;99.90;;;;;;5048614;28;20551;-69
2021/12/10 05:11:16;;;;;;;28.85;18.63;;;4.20;99.90;;;;;;5047623;28;20041;-69
2021/12/10 05:13:45;;;;;;;27.42;17.50;;;4.20;99.90;;;;;;5048178;28;20041;-69
2021/12/10 05:16:11;;;;;;;29.08;18.35;;;4.10;99.90;;;;;;5049274;28;20049;-69
2021/12/10 05:18:40;;;;;;;29.42;17.42;;;4.00;99.90;;;;;;5046199;28;20042;-69
2021/12/10 05:21:09;;;;;;;28.40;17.92;;;4.00;99.90;;;;;;5049301;28;20129;-69
2021/12/10 05:23:36;;;;;;;28.90;18.00;;;4.10;99.90;;;;;;5047876;28;20409;-69
2021/12/10 05:26:02;;;;;;;29.77;19.23;;;3.90;99.90;;;;;;5044200;28;20045;-69
2021/12/10 05:28:28;;;;;;;29.98;18.85;;;4.70;99.90;;;;;;5028488;28;20047;-69
2021/12/10 05:30:56;;;;;;;28.83;18.50;;;3.80;99.90;;;;;;5028300;28;20053;-69
2021/12/10 05:33:24;;;;;;;35.40;18.63;;;3.70;99.90;;;;;;5045759;28;20393;-69
2021/12/10 05:35:51;;;;;;;34.25;19.60;;;3.70;99.90;;;;;;5041812;28;20461;-69
2021/12/10 05:38:17;;;;;;;29.27;18.90;;;3.70;99.90;;;;;;5027189;28;20046;-69
2021/12/10 05:40:48;;;;;;;31.42;18.15;;;3.60;99.90;;;;;;5041099;28;20045;-69
2021/12/10 05:43:14;;;;;;;27.77;18.05;;;3.60;99.90;;;;;;5029531;28;20045;-69
2021/12/10 05:45:40;;;;;;;28.58;18.23;;;3.60;99.90;;;;;;5028574;28;20041;-69
2021/12/10 05:48:06;;;;;;;29.73;18.70;;;3.60;99.90;;;;;;5047874;28;20048;-69
2021/12/10 05:50:34;;;;;;;30.50;19.00;;;3.60;99.90;;;;;;5047114;28;20055;-69
2021/12/10 05:53:00;;;;;;;32.22;19.52;;;3.60;99.90;;;;;;5047652;28;20033;-69
2021/12/10 05:55:26;;;;;;;31.75;20.02;;;3.50;99.90;;;;;;5047938;28;20124;-70
2021/12/10 05:57:53;;;;;;;29.88;19.85;;;3.50;99.90;;;;;;5045518;28;20122;-69
2021/12/10 06:00:27;;;;;;;31.00;19.55;;;3.50;99.90;;;;;;5042587;28;20029;-68
2021/12/10 06:02:54;;;;;;;30.90;20.67;;;3.50;99.90;;;;;;5036836;28;20079;-69
2021/12/10 06:05:20;;;;;;;30.50;18.48;;;3.40;99.90;;;;;;5047131;28;20036;-69
2021/12/10 06:07:46;;;;;;;29.00;19.23;;;4.60;99.90;;;;;;5031159;28;20048;-69
2021/12/10 06:10:14;;;;;;;30.38;20.42;;;3.40;99.90;;;;;;5027991;28;20041;-69
2021/12/10 06:12:42;;;;;;;29.30;19.67;;;3.40;99.90;;;;;;5033709;28;20045;-69
2021/12/10 06:15:10;;;;;;;32.72;20.15;;;3.30;99.90;;;;;;5045983;28;20071;-69
2021/12/10 06:17:36;;;;;;;31.85;20.65;;;3.30;99.90;;;;;;5046078;28;20053;-69
2021/12/10 06:20:05;;;;;;;35.95;20.48;;;3.30;99.90;;;;;;5047769;28;20051;-69
2021/12/10 06:22:30;;;;;;;35.78;19.75;;;3.30;99.90;;;;;;5045028;28;20043;-69
2021/12/10 06:24:56;;;;;;;34.70;20.13;;;3.30;99.90;;;;;;5048441;28;20135;-68
2021/12/10 06:27:22;;;;;;;32.95;19.60;;;3.20;99.90;;;;;;5042951;28;20037;-68
2021/12/10 06:29:48;;;;;;;29.88;20.05;;;3.20;99.90;;;;;;5048703;28;20040;-69
2021/12/10 06:32:13;;;;;;;30.80;19.80;;;3.20;99.90;;;;;;5045148;28;20477;-70
2021/12/10 06:34:39;;;;;;;40.63;21.02;;;3.20;99.90;;;;;;5031226;28;20048;-69
2021/12/10 06:37:06;;;;;;;31.23;20.52;;;3.20;99.90;;;;;;5037792;28;20128;-69
2021/12/10 06:39:32;;;;;;;34.72;20.85;;;3.30;99.90;;;;;;5027688;28;20049;-69
2021/12/10 06:41:58;;;;;;;30.35;20.23;;;3.30;99.90;;;;;;5027275;28;20389;-69
2021/12/10 06:44:24;;;;;;;30.27;20.40;;;3.30;99.90;;;;;;5028294;28;20207;-69
2021/12/10 06:46:50;;;;;;;30.50;20.30;;;3.30;99.90;;;;;;5027793;28;20049;-69
2021/12/10 06:49:16;;;;;;;31.80;19.38;;;3.30;99.90;;;;;;5028784;28;20064;-70
2021/12/10 06:51:43;;;;;;;33.15;20.02;;;3.30;99.90;;;;;;5027295;28;20057;-70
2021/12/10 06:54:09;;;;;;;25.75;18.08;;;3.30;99.90;;;;;;5048248;28;20056;-68
2021/12/10 06:56:36;;;;;;;26.83;16.08;;;3.10;99.90;;;;;;5047681;28;20436;-69
2021/12/10 06:59:04;;;;;;;24.85;16.27;;;3.40;99.90;;;;;;5045158;28;20041;-69
2021/12/10 07:01:34;;;;;;;22.65;16.10;;;3.40;99.90;;;;;;5047461;28;20055;-70
2021/12/10 07:04:01;;;;;;;26.23;16.98;;;3.40;99.90;;;;;;5047300;28;20060;-69
2021/12/10 07:06:29;;;;;;;25.90;16.15;;;3.30;99.90;;;;;;5047495;28;20643;-70
2021/12/10 07:08:56;;;;;;;22.80;15.93;;;3.30;99.90;;;;;;5047523;28;20386;-71
2021/12/10 07:11:22;;;;;;;24.50;16.42;;;3.30;99.90;;;;;;5047304;28;20049;-70
2021/12/10 07:13:51;;;;;;;28.30;17.33;;;3.20;99.90;;;;;;5047644;28;20408;-70
2021/12/10 07:16:20;;;;;;;23.63;14.82;;;3.10;99.90;;;;;;5045317;28;20057;-70
2021/12/10 07:18:49;;;;;;;23.92;15.23;;;3.10;99.90;;;;;;5047286;28;20060;-70
2021/12/10 07:21:15;;;;;;;26.67;16.05;;;3.10;99.90;;;;;;5045923;28;20341;-70
2021/12/10 07:23:42;;;;;;;24.95;15.75;;;3.10;99.90;;;;;;5041810;28;20057;-70
2021/12/10 07:26:09;;;;;;;29.35;15.52;;;3.00;99.90;;;;;;5029987;28;20131;-71
2021/12/10 07:28:35;;;;;;;25.90;16.08;;;2.90;99.90;;;;;;5027804;28;20033;-69
2021/12/10 07:31:04;;;;;;;26.45;16.02;;;2.90;99.90;;;;;;5036726;28;20148;-69
2021/12/10 07:33:30;;;;;;;24.42;14.43;;;2.90;99.90;;;;;;5047456;28;20132;-69
2021/12/10 07:35:56;;;;;;;23.80;15.43;;;2.80;99.90;;;;;;5047503;28;20520;-69
2021/12/10 07:38:22;;;;;;;26.30;15.65;;;2.80;99.90;;;;;;5044462;28;20486;-69
2021/12/10 07:40:49;;;;;;;24.58;14.90;;;2.70;99.90;;;;;;5043157;28;20076;-70
2021/12/10 07:43:15;;;;;;;20.63;14.02;;;2.70;99.90;;;;;;5028988;28;20431;-69
2021/12/10 07:45:45;;;;;;;23.77;13.68;;;2.70;99.90;;;;;;5040677;28;20081;-70
2021/12/10 07:48:12;;;;;;;21.48;14.43;;;2.70;99.90;;;;;;5025708;28;20083;-69
2021/12/10 07:50:42;;;;;;;23.95;13.18;;;2.70;99.90;;;;;;5036631;28;20091;-70
2021/12/10 07:53:08;;;;;;;20.73;13.57;;;3.30;99.90;;;;;;5049891;28;20045;-69
2021/12/10 07:55:36;;;;;;;22.08;13.43;;;2.70;99.90;;;;;;5045998;28;20033;-70
2021/12/10 07:58:04;;;;;;;22.85;13.05;;;2.70;99.90;;;;;;5029198;28;20355;-70
2021/12/10 08:00:33;;;;;;;21.38;13.65;;;2.70;99.90;;;;;;5032026;28;20404;-70
2021/12/10 08:03:00;;;;;;;20.80;12.57;;;2.70;99.90;;;;;;5031463;28;20088;-70
2021/12/10 08:05:26;;;;;;;21.77;12.80;;;2.80;99.90;;;;;;5034887;28;20371;-70
2021/12/10 08:07:53;;;;;;;19.35;12.68;;;2.80;99.90;;;;;;5043805;28;20033;-69
2021/12/10 08:10:20;;;;;;;21.08;13.05;;;2.80;99.90;;;;;;5042980;28;20060;-69
2021/12/10 08:12:45;;;;;;;20.15;12.20;;;2.80;99.90;;;;;;5048714;28;20083;-70
2021/12/10 08:15:12;;;;;;;19.38;12.00;;;2.90;99.90;;;;;;5045759;28;20155;-70
2021/12/10 08:17:38;;;;;;;19.23;12.20;;;2.90;99.90;;;;;;5026304;28;20054;-69
2021/12/10 08:20:07;;;;;;;18.92;12.48;;;2.90;99.90;;;;;;5033749;28;20054;-70
2021/12/10 08:22:32;;;;;;;18.10;12.40;;;2.90;99.90;;;;;;5043671;28;20084;-69
2021/12/10 08:24:58;;;;;;;18.05;11.88;;;2.90;99.90;;;;;;5046292;28;20080;-70
2021/12/10 08:27:24;;;;;;;17.13;11.85;;;2.90;99.90;;;;;;5034121;28;20056;-69
2021/12/10 08:29:50;;;;;;;19.25;12.30;;;3.00;99.90;;;;;;5049961;28;20040;-70
2021/12/10 08:32:20;;;;;;;18.88;11.18;;;3.00;99.90;;;;;;5058107;28;20044;-70
2021/12/10 08:34:49;;;;;;;16.08;10.77;;;3.10;99.90;;;;;;5070570;28;20045;-70
2021/12/10 08:37:16;;;;;;;15.98;10.23;;;3.20;99.90;;;;;;5069210;28;20131;-69
2021/12/10 08:39:43;;;;;;;16.48;10.40;;;3.20;99.90;;;;;;5068526;28;20480;-70
2021/12/10 08:42:13;;;;;;;16.25;10.35;;;3.30;99.90;;;;;;5050611;28;20044;-70
2021/12/10 08:44:39;;;;;;;15.40;9.82;;;3.30;99.90;;;;;;5049789;28;20431;-70
2021/12/10 08:47:05;;;;;;;19.65;10.23;;;3.40;99.90;;;;;;5048527;28;20055;-69
2021/12/10 08:49:30;;;;;;;16.63;10.30;;;3.50;99.90;;;;;;5048719;28;20087;-69
2021/12/10 08:51:57;;;;;;;16.17;9.65;;;3.50;99.90;;;;;;5048790;28;20412;-70
2021/12/10 08:54:28;;;;;;;15.23;9.50;;;3.70;99.90;;;;;;5030992;28;20045;-69
2021/12/10 08:56:54;;;;;;;13.25;9.20;;;3.80;99.90;;;;;;5048722;28;20114;-70
2021/12/10 08:59:23;;;;;;;14.93;8.90;;;3.80;99.90;;;;;;5035105;28;20103;-69
2021/12/10 09:01:51;;;;;;;13.90;8.70;;;3.90;99.90;;;;;;5029819;28;20049;-70
2021/12/10 09:04:16;;;;;;;12.93;8.43;;;4.00;99.90;;;;;;5030108;28;20041;-70
2021/12/10 09:06:48;;;;;;;15.90;8.65;;;4.20;99.90;;;;;;5027883;28;20049;-70
2021/12/10 09:09:14;;;;;;;12.48;8.13;;;4.20;99.90;;;;;;5029968;28;20041;-70
2021/12/10 09:11:46;;;;;;;13.25;8.25;;;4.40;99.90;;;;;;5028262;28;20133;-69
2021/12/10 09:14:11;;;;;;;13.18;8.63;;;4.20;99.90;;;;;;5029369;28;20061;-69
2021/12/10 09:16:38;;;;;;;13.00;8.38;;;4.50;99.90;;;;;;5028366;28;20034;-69
2021/12/10 09:19:07;;;;;;;14.75;8.25;;;4.70;99.90;;;;;;5028198;28;20073;-69
2021/12/10 09:21:34;;;;;;;13.40;7.60;;;5.40;99.90;;;;;;5027051;28;20516;-70
2021/12/10 09:24:04;;;;;;;10.98;6.95;;;6.00;99.90;;;;;;5029482;28;20046;-69
2021/12/10 09:26:32;;;;;;;13.55;7.60;;;6.30;99.90;;;;;;5027460;28;20044;-70
2021/12/10 09:28:59;;;;;;;11.35;6.88;;;6.60;99.90;;;;;;5027895;28;20539;-69
2021/12/10 09:31:24;;;;;;;11.65;7.55;;;7.20;99.90;;;;;;5045611;28;20053;-69
2021/12/10 09:33:56;;;;;;;9.38;6.75;;;7.70;99.90;;;;;;5027977;28;20504;-71
2021/12/10 09:36:24;;;;;;;12.10;7.30;;;7.90;99.90;;;;;;5026022;28;20500;-69
2021/12/10 09:38:50;;;;;;;10.35;6.40;;;8.60;99.90;;;;;;5027184;28;20052;-70
2021/12/10 09:41:17;;;;;;;10.45;6.40;;;8.60;99.90;;;;;;5028780;28;20501;-70
2021/12/10 09:43:43;;;;;;;9.73;6.53;;;8.90;99.90;;;;;;5028543;28;20057;-70
2021/12/10 09:46:10;;;;;;;10.32;6.53;;;9.20;99.90;;;;;;5030709;28;20454;-70
2021/12/10 09:48:37;;;;;;;10.52;6.95;;;9.10;99.90;;;;;;5028825;28;20468;-70
2021/12/10 09:51:15;;;;;;;12.68;6.95;;;10.00;99.90;;;;;;5027742;28;20389;-70
2021/12/10 09:53:44;;;;;;;9.38;6.18;;;8.50;99.90;;;;;;5011829;28;20048;-70
2021/12/10 09:56:10;;;;;;;12.43;6.38;;;8.40;99.90;;;;;;5028506;28;20284;-70
2021/12/10 09:58:36;;;;;;;11.63;6.72;;;8.20;99.90;;;;;;5028472;28;20045;-70
2021/12/10 10:01:13;;;;;;;10.45;6.22;;;8.30;99.90;;;;;;5033449;28;20459;-69
2021/12/10 10:03:42;;;;;;;9.48;6.60;;;8.10;99.90;;;;;;5045939;28;20048;-69
2021/12/10 10:06:08;;;;;;;11.55;6.68;;;8.00;99.90;;;;;;5048196;28;20424;-70
2021/12/10 10:08:35;;;;;;;10.27;7.07;;;8.60;99.90;;;;;;5047649;28;20401;-69
2021/12/10 10:11:08;;;;;;;10.73;6.43;;;8.70;99.90;;;;;;5046404;28;20049;-69
2021/12/10 10:13:38;;;;;;;10.40;6.72;;;9.00;99.90;;;;;;5045585;28;20182;-69
2021/12/10 10:16:05;;;;;;;11.73;7.13;;;9.10;99.90;;;;;;5045749;28;20053;-68
2021/12/10 10:18:35;;;;;;;9.95;6.68;;;8.80;99.90;;;;;;5026029;28;20132;-71
2021/12/10 10:21:06;;;;;;;9.02;6.10;;;9.50;99.90;;;;;;5028591;28;20046;-70
2021/12/10 10:23:32;;;;;;;10.88;6.25;;;9.30;99.90;;;;;;5045865;28;20040;-70
2021/12/10 10:26:00;;;;;;;10.30;6.07;;;9.70;99.90;;;;;;5040507;28;20563;-70
2021/12/10 10:28:27;;;;;;;9.23;6.30;;;9.50;99.90;;;;;;5040282;28;20132;-70
2021/12/10 10:31:03;;;;;;;8.30;5.53;;;9.60;99.90;;;;;;5028342;28;20171;-70
2021/12/10 10:33:32;;;;;;;9.35;6.10;;;10.40;99.90;;;;;;5022913;28;20057;-70
2021/12/10 10:36:01;;;;;;;9.27;5.57;;;10.60;99.90;;;;;;5045321;28;20481;-70
2021/12/10 10:38:27;;;;;;;8.90;5.55;;;10.60;99.90;;;;;;5037763;28;20543;-71
2021/12/10 10:40:57;;;;;;;9.93;5.55;;;10.70;99.90;;;;;;5048145;28;20041;-71
2021/12/10 10:43:25;;;;;;;9.63;5.90;;;10.50;99.90;;;;;;5047696;28;20102;-70
2021/12/10 10:45:51;;;;;;;9.20;5.32;;;9.90;99.90;;;;;;5047426;28;20037;-70
2021/12/10 10:48:17;;;;;;;8.70;5.70;;;10.60;99.90;;;;;;5046689;28;20059;-71
2021/12/10 10:50:58;;;;;;;9.15;5.63;;;10.20;99.90;;;;;;5046336;28;20123;-71
2021/12/10 10:53:30;;;;;;;7.57;5.20;;;10.60;99.90;;;;;;5048365;28;20040;-71
2021/12/10 10:56:10;;;;;;;9.23;5.45;;;10.20;99.90;;;;;;5049466;28;20048;-71
2021/12/10 10:58:41;;;;;;;7.05;4.72;;;10.80;99.90;;;;;;5047037;28;20057;-71
2021/12/10 11:01:23;;;;;;;7.10;4.82;;;11.60;99.90;;;;;;5046299;28;20052;-71
2021/12/10 11:04:24;;;;;;;8.93;5.00;;;11.40;99.90;;;;;;5047214;28;20044;-71
2021/12/10 11:06:52;;;;;;;7.32;4.65;;;12.10;99.90;;;;;;5030190;28;20051;-71
2021/12/10 11:09:26;;;;;;;8.50;5.22;;;11.30;99.90;;;;;;5045344;28;20412;-72
2021/12/10 11:12:03;;;;;;;7.32;5.20;;;10.60;99.90;;;;;;5046386;28;20489;-71
2021/12/10 11:14:33;;;;;;;8.63;4.70;;;11.80;99.90;;;;;;5045587;28;20525;-71
2021/12/10 11:17:29;;;;;;;7.40;4.55;;;12.60;99.90;;;;;;5045875;28;20199;-71
2021/12/10 11:19:55;;;;;;;;;;;13.10;99.90;;;;;;5025264;28;20075;-72
2021/12/10 11:22:24;;;;;;;8.13;4.50;;;12.30;99.90;;;;;;5027366;28;19916;-71
2021/12/10 11:24:55;;;;;;;8.48;4.90;;;12.40;99.90;;;;;;5050547;28;20475;-71
2021/12/10 11:27:34;;;;;;;8.60;4.68;;;12.10;99.90;;;;;;5033710;28;20115;-70
2021/12/10 11:30:03;;;;;;;7.43;4.75;;;11.50;99.90;;;;;;5031102;28;20042;-71
2021/12/10 11:32:39;;;;;;;6.15;4.45;;;11.10;99.90;;;;;;5031182;28;20899;-70
2021/12/10 11:35:14;;;;;;;7.90;4.50;;;12.20;99.90;;;;;;5031003;28;20042;-71
2021/12/10 11:37:58;;;;;;;9.05;4.65;;;12.60;99.90;;;;;;5030140;28;20045;-70
2021/12/10 11:40:49;;;;;;;7.28;4.78;;;13.30;99.90;;;;;;5032719;28;21014;-70
2021/12/10 11:49:00;;;;;;;9.13;4.30;;;14.50;99.90;;;;;;5029697;28;20063;-70
2021/12/10 11:51:32;;;;;;;6.07;4.50;;;15.60;99.20;;;;;;5039130;28;20528;-70
2021/12/10 11:54:04;;;;;;;6.40;4.45;;;15.60;98.20;;;;;;5034892;28;20049;-70
2021/12/10 11:56:37;;;;;;;7.00;4.65;;;16.30;97.40;;;;;;5029486;28;20053;-70
2021/12/10 11:59:12;;;;;;;7.72;4.30;;;17.20;95.40;;;;;;5029267;28;20192;-70
2021/12/10 12:01:53;;;;;;;6.95;4.60;;;17.50;93.00;;;;;;5037684;28;20057;-69
2021/12/10 12:04:24;;;;;;;8.82;4.65;;;16.50;91.20;;;;;;5046720;28;20410;-70
2021/12/10 12:07:33;;;;;;;6.95;4.78;;;17.00;91.20;;;;;;5044327;28;20045;-70
2021/12/10 12:10:32;;;;;;;6.40;4.20;;;16.90;89.50;;;;;;5046768;28;20064;-70
2021/12/10 12:13:04;;;;;;;6.15;4.00;;;16.50;88.30;;;;;;5036513;28;20406;-69
2021/12/10 12:15:31;;;;;;;7.15;4.05;;;17.40;89.10;;;;;;5008728;28;20176;-70
2021/12/10 12:18:00;;;;;;;6.97;4.20;;;16.70;90.20;;;;;;5026820;28;20046;-70
2021/12/10 12:20:26;;;;;;;5.35;3.95;;;15.20;91.90;;;;;;5025506;28;20101;-70
2021/12/10 12:25:53;;;;;;;8.68;4.63;;;16.00;93.10;;;;;;5027270;28;20152;-70
2021/12/10 12:28:23;;;;;;;7.32;4.43;;;17.30;91.90;;;;;;5043490;28;20084;-70
2021/12/10 12:30:53;;;;;;;7.20;4.57;;;17.20;91.80;;;;;;5041644;28;20478;-71
2021/12/10 12:33:20;;;;;;;6.90;4.30;;;18.40;91.30;;;;;;5026066;28;20138;-69
2021/12/10 12:35:46;;;;;;;6.68;3.72;;;18.40;82.20;;;;;;5026178;28;20409;-69
2021/12/10 12:38:15;;;;;;;8.07;5.13;;;19.00;75.70;;;;;;5030937;28;20041;-70
2021/12/10 12:40:44;;;;;;;9.70;5.97;;;19.50;80.20;;;;;;5042288;28;20046;-70
2021/12/10 12:43:10;;;;;;;8.38;6.32;;;19.70;76.40;;;;;;5033049;28;20135;-70
2021/12/10 12:45:37;;;;;;;7.60;6.03;;;20.60;73.30;;;;;;5033760;28;20060;-70
2021/12/10 12:48:09;;;;;;;8.82;6.88;;;20.30;70.30;;;;;;5043805;28;20428;-70
2021/12/10 12:50:36;;;;;;;8.23;6.50;;;19.00;72.50;;;;;;5044113;28;20378;-71
2021/12/10 12:53:05;;;;;;;5.95;4.40;;;17.50;75.30;;;;;;5040204;28;20389;-71
2021/12/10 12:55:33;;;;;;;6.63;3.85;;;15.60;83.30;;;;;;5040703;28;20124;-71
2021/12/10 12:58:11;;;;;;;5.82;4.05;;;14.90;90.60;;;;;;5030841;28;20045;-70
2021/12/10 13:01:04;;;;;;;7.70;4.45;;;14.00;93.50;;;;;;5030992;28;20041;-71
2021/12/10 13:03:59;;;;;;;8.05;4.50;;;13.10;95.80;;;;;;5047963;28;20043;-71